Time;durP1;ratioP1;P1;durP2;ratioP2;P2;SDS_P1;SDS_P2;PMS_P1;PMS_P2;Temp;Humidity;BMP_temperature;BMP_pressure;BME280_temperature;BME280_humidity;BME280_pressure;Samples;Min_cycle;Max_cycle;Signal;HPM_P1;HPM_P2
2023/01/24 13:23:45;;;;;;;15.23;3.88;;;;;;;;;;4183753;27;20654;-41
2023/01/24 13:26:10;;;;;;;20.38;4.47;;;;;;;;;;4179701;28;21580;-47
2023/01/24 13:28:30;;;;;;;18.15;4.03;;;;;;;;;;4148021;28;20063;-42
2023/01/24 13:30:44;;;;;;;16.02;4.20;;;;;;;;;;4175821;28;20201;-38
2023/01/24 13:32:47;;;;;;;17.80;3.75;;;;;;;;;;4180348;28;20546;-41
2023/01/24 13:34:51;;;;;;;14.02;4.07;;;;;;;;;;4176229;28;20106;-42
2023/01/24 13:36:52;;;;;;;15.18;3.47;;;;;;;;;;4180900;28;20060;-42
2023/01/24 13:38:54;;;;;;;17.58;3.55;;;;;;;;;;4187314;28;20095;-40
2023/01/24 13:41:05;;;;;;;11.30;3.70;;;;;;;;;;4178424;28;20557;-38
2023/01/24 13:43:44;;;;;;;11.18;2.88;;;;;;;;;;4175842;28;20562;-45
2023/01/24 13:45:47;;;;;;;16.40;2.87;;;;;;;;;;4175173;28;20497;-44
2023/01/24 13:47:49;;;;;;;11.18;2.90;;;;;;;;;;4143844;28;20064;-39
2023/01/24 13:49:53;;;;;;;9.35;2.70;;;;;;;;;;4171143;28;20083;-45
2023/01/24 13:52:01;;;;;;;10.43;3.10;;;;;;;;;;4180368;28;20237;-42
2023/01/24 13:54:06;;;;;;;10.90;3.15;;;;;;;;;;4178906;28;20610;-39
2023/01/24 13:56:08;;;;;;;12.00;3.03;;;;;;;;;;4182353;28;20056;-41
2023/01/24 13:58:09;;;;;;;11.38;2.70;;;;;;;;;;4180073;28;20082;-44
2023/01/24 14:00:28;;;;;;;11.50;2.78;;;;;;;;;;4176752;28;20150;-41
2023/01/24 14:02:32;;;;;;;9.40;2.50;;;;;;;;;;4175478;28;20103;-42
2023/01/24 14:04:41;;;;;;;9.10;2.47;;;;;;;;;;4168173;28;20613;-44
2023/01/24 14:06:46;;;;;;;9.27;2.35;;;;;;;;;;4164502;28;20108;-45
2023/01/24 14:08:51;;;;;;;9.32;2.28;;;;;;;;;;4168236;28;20053;-41
2023/01/24 14:11:05;;;;;;;10.35;2.28;;;;;;;;;;4164204;28;20104;-44
2023/01/24 14:13:44;;;;;;;6.10;2.03;;;;;;;;;;4159914;28;20053;-42
2023/01/24 14:15:46;;;;;;;6.50;1.88;;;;;;;;;;4155602;28;20152;-45
2023/01/24 14:17:49;;;;;;;10.65;2.25;;;;;;;;;;4166656;28;20492;-44
2023/01/24 14:19:51;;;;;;;6.35;1.70;;;;;;;;;;4161010;28;20057;-42
2023/01/24 14:22:06;;;;;;;6.75;2.40;;;;;;;;;;4167086;28;20053;-42
2023/01/24 14:24:34;;;;;;;10.70;2.00;;;;;;;;;;4170115;28;20458;-44
2023/01/24 14:26:36;;;;;;;5.82;2.00;;;;;;;;;;4184133;28;20102;-44
2023/01/24 14:28:40;;;;;;;2.47;1.20;;;;;;;;;;4167768;28;20081;-49
2023/01/24 14:30:46;;;;;;;7.03;1.45;;;;;;;;;;4167554;28;20119;-42
2023/01/24 14:32:50;;;;;;;5.40;1.80;;;;;;;;;;4166034;28;20063;-41
2023/01/24 14:35:07;;;;;;;5.00;1.23;;;;;;;;;;4162890;28;20057;-42
2023/01/24 14:37:10;;;;;;;5.05;1.40;;;;;;;;;;4159855;28;20533;-43
2023/01/24 14:39:25;;;;;;;9.25;2.05;;;;;;;;;;4150068;28;20092;-46
2023/01/24 14:41:27;;;;;;;4.13;1.52;;;;;;;;;;4160073;28;20194;-47
2023/01/24 14:43:46;;;;;;;4.47;1.40;;;;;;;;;;4158469;28;20539;-46
2023/01/24 14:45:48;;;;;;;;;;;;;;;;;;4154472;28;20076;-48
2023/01/24 14:47:50;;;;;;;3.17;1.42;;;;;;;;;;4153055;28;19925;-45
2023/01/24 14:49:54;;;;;;;4.65;1.33;;;;;;;;;;4154210;28;20058;-42
2023/01/24 14:51:55;;;;;;;3.35;0.95;;;;;;;;;;4156999;28;20057;-45
2023/01/24 14:53:56;;;;;;;4.65;1.50;;;;;;;;;;4159404;28;20423;-47
2023/01/24 14:56:07;;;;;;;4.05;1.50;;;;;;;;;;4155157;28;20061;-45
2023/01/24 14:58:18;;;;;;;3.72;1.23;;;;;;;;;;4155672;28;20190;-43
2023/01/24 15:00:21;;;;;;;8.45;1.73;;;;;;;;;;4151684;28;20087;-47
2023/01/24 15:02:22;;;;;;;5.15;1.05;;;;;;;;;;4157639;28;20049;-43
2023/01/24 15:04:28;;;;;;;4.82;1.08;;;;;;;;;;4151223;28;20049;-44
2023/01/24 15:06:30;;;;;;;5.03;1.02;;;;;;;;;;4154706;28;20519;-44
2023/01/24 15:08:33;;;;;;;5.68;1.15;;;;;;;;;;4161081;28;20053;-45
2023/01/24 15:10:39;;;;;;;4.68;1.35;;;;;;;;;;4155021;28;20593;-38
2023/01/24 15:12:41;;;;;;;5.55;1.27;;;;;;;;;;4160552;28;20102;-45
2023/01/24 15:14:47;;;;;;;4.63;0.90;;;;;;;;;;4158163;28;20056;-43
2023/01/24 15:16:52;;;;;;;6.13;1.55;;;;;;;;;;4156638;28;20614;-44
2023/01/24 15:19:01;;;;;;;2.70;0.77;;;;;;;;;;4156778;28;20080;-46
2023/01/24 15:21:02;;;;;;;3.40;1.10;;;;;;;;;;4160190;28;20103;-45
2023/01/24 15:23:09;;;;;;;3.70;1.02;;;;;;;;;;4156691;28;20077;-44
2023/01/24 15:25:27;;;;;;;2.25;1.02;;;;;;;;;;4155173;28;20139;-48
2023/01/24 15:27:29;;;;;;;3.38;0.85;;;;;;;;;;4158699;28;20064;-41
2023/01/24 15:29:37;;;;;;;5.78;0.82;;;;;;;;;;4152862;28;20504;-45
2023/01/24 15:31:48;;;;;;;2.75;0.80;;;;;;;;;;4156324;28;20049;-45
2023/01/24 15:33:57;;;;;;;4.82;0.93;;;;;;;;;;4157810;28;20085;-46
2023/01/24 15:35:58;;;;;;;4.43;0.90;;;;;;;;;;4158041;28;20128;-48
2023/01/24 15:38:25;;;;;;;2.17;0.55;;;;;;;;;;4159315;28;20111;-44
2023/01/24 15:40:26;;;;;;;1.77;0.50;;;;;;;;;;4154872;28;20629;-42
2023/01/24 15:44:48;;;;;;;;;;;;;;;;;;4153746;28;20053;-41
2023/01/24 15:49:22;;;;;;;3.95;0.98;;;;;;;;;;4157459;28;20053;-42
2023/01/24 15:51:35;;;;;;;1.17;0.52;;;;;;;;;;4163440;28;20090;-42
2023/01/24 15:53:44;;;;;;;2.05;0.50;;;;;;;;;;4160159;28;20064;-42
2023/01/24 15:55:45;;;;;;;2.13;0.60;;;;;;;;;;4156650;28;20111;-41
2023/01/24 15:57:46;;;;;;;1.25;0.47;;;;;;;;;;4158074;28;20461;-43
2023/01/24 15:59:52;;;;;;;1.38;0.73;;;;;;;;;;4157648;28;20053;-42
2023/01/24 16:01:53;;;;;;;1.25;0.50;;;;;;;;;;4158726;28;20417;-41
2023/01/24 16:03:55;;;;;;;1.25;0.68;;;;;;;;;;4157199;28;20992;-42
2023/01/24 16:05:56;;;;;;;2.40;0.50;;;;;;;;;;4160672;28;21677;-42
2023/01/24 16:07:57;;;;;;;3.03;0.60;;;;;;;;;;4154337;28;20111;-43
2023/01/24 16:09:59;;;;;;;1.80;0.60;;;;;;;;;;4156346;28;20053;-44
2023/01/24 16:12:00;;;;;;;1.45;0.57;;;;;;;;;;4158765;28;20064;-41
2023/01/24 16:14:02;;;;;;;3.40;0.52;;;;;;;;;;4159563;28;20107;-44
2023/01/24 16:16:08;;;;;;;1.10;0.55;;;;;;;;;;4160801;28;20142;-42
2023/01/24 16:18:10;;;;;;;2.08;0.57;;;;;;;;;;4161989;28;20118;-42
2023/01/24 16:20:23;;;;;;;2.58;0.70;;;;;;;;;;4156904;28;20119;-39
2023/01/24 16:22:24;;;;;;;0.77;0.40;;;;;;;;;;4164320;28;20045;-41
2023/01/24 16:24:25;;;;;;;3.35;0.73;;;;;;;;;;4163189;28;20053;-41
2023/01/24 16:26:27;;;;;;;0.93;0.40;;;;;;;;;;4161384;28;20132;-41
2023/01/24 16:28:28;;;;;;;1.30;0.50;;;;;;;;;;4159445;28;20517;-42
2023/01/24 16:30:29;;;;;;;1.15;0.40;;;;;;;;;;4162538;28;20058;-41
2023/01/24 16:32:31;;;;;;;1.77;0.40;;;;;;;;;;4163479;28;20146;-40
2023/01/24 16:34:32;;;;;;;1.67;0.55;;;;;;;;;;4162487;28;20049;-43
2023/01/24 16:36:34;;;;;;;1.48;0.80;;;;;;;;;;4157781;28;20103;-38
2023/01/24 16:38:35;;;;;;;3.30;0.45;;;;;;;;;;4165785;28;20049;-43
2023/01/24 16:40:37;;;;;;;0.50;0.40;;;;;;;;;;4166604;28;20463;-42
2023/01/24 16:42:40;;;;;;;1.67;0.38;;;;;;;;;;4164817;28;20045;-41
2023/01/24 16:44:42;;;;;;;2.03;0.30;;;;;;;;;;4163993;28;20053;-40
2023/01/24 16:46:48;;;;;;;2.08;0.75;;;;;;;;;;4166131;28;20387;-41
2023/01/24 16:48:51;;;;;;;2.22;0.43;;;;;;;;;;4163411;28;20061;-41
2023/01/24 16:50:53;;;;;;;0.73;0.50;;;;;;;;;;4163537;28;20084;-43
2023/01/24 16:52:55;;;;;;;0.63;0.38;;;;;;;;;;4164804;28;20189;-43
2023/01/24 16:54:57;;;;;;;1.38;0.35;;;;;;;;;;4168221;28;20075;-43
2023/01/24 16:56:58;;;;;;;0.82;0.43;;;;;;;;;;4164554;28;20465;-44
2023/01/24 16:59:00;;;;;;;1.25;0.60;;;;;;;;;;4162396;28;20091;-44
2023/01/24 17:01:08;;;;;;;0.73;0.40;;;;;;;;;;4163276;28;20546;-43
2023/01/24 17:03:10;;;;;;;0.88;0.45;;;;;;;;;;4161281;28;20092;-43
2023/01/24 17:05:11;;;;;;;1.23;0.50;;;;;;;;;;4165123;28;20309;-43
2023/01/24 17:07:13;;;;;;;1.20;0.60;;;;;;;;;;4125209;28;20053;-42
2023/01/24 17:09:14;;;;;;;1.05;0.30;;;;;;;;;;4144800;28;20120;-42
2023/01/24 17:11:16;;;;;;;1.30;0.60;;;;;;;;;;4149395;28;20079;-43
2023/01/24 17:13:17;;;;;;;1.20;0.40;;;;;;;;;;4159062;28;20053;-45
2023/01/24 17:15:18;;;;;;;0.55;0.35;;;;;;;;;;4148311;28;20308;-44
2023/01/24 17:17:20;;;;;;;2.58;0.40;;;;;;;;;;4160612;28;20104;-43
2023/01/24 17:19:21;;;;;;;1.10;0.30;;;;;;;;;;4159375;28;20072;-43
2023/01/24 17:21:22;;;;;;;1.42;0.40;;;;;;;;;;4158817;28;20107;-44
2023/01/24 17:23:23;;;;;;;3.70;0.60;;;;;;;;;;4147230;28;20105;-45
2023/01/24 17:25:26;;;;;;;0.40;0.30;;;;;;;;;;4159744;28;20116;-43
2023/01/24 17:27:27;;;;;;;1.05;0.40;;;;;;;;;;4160566;28;20061;-44
2023/01/24 17:29:28;;;;;;;0.88;0.38;;;;;;;;;;4160620;28;20065;-45
2023/01/24 17:31:31;;;;;;;2.20;0.30;;;;;;;;;;4146703;28;20486;-45
2023/01/24 17:33:32;;;;;;;0.90;0.50;;;;;;;;;;4160581;28;20115;-43
2023/01/24 17:35:37;;;;;;;0.73;0.25;;;;;;;;;;4151554;28;20054;-44
2023/01/24 17:37:38;;;;;;;2.40;0.45;;;;;;;;;;4143861;28;20054;-45
2023/01/24 17:39:39;;;;;;;0.93;0.43;;;;;;;;;;4158435;28;20065;-43
2023/01/24 17:41:41;;;;;;;0.90;0.40;;;;;;;;;;4154023;28;20060;-42
2023/01/24 17:43:43;;;;;;;1.33;0.50;;;;;;;;;;4152204;28;20054;-43
2023/01/24 17:45:55;;;;;;;1.48;0.47;;;;;;;;;;4160008;28;20049;-43
2023/01/24 17:47:56;;;;;;;0.85;0.45;;;;;;;;;;4157563;28;20115;-43
2023/01/24 17:49:58;;;;;;;0.40;0.30;;;;;;;;;;4154742;28;20460;-43
2023/01/24 17:51:59;;;;;;;1.27;0.50;;;;;;;;;;4160473;28;20053;-43
2023/01/24 17:54:00;;;;;;;1.95;0.50;;;;;;;;;;4147082;28;20061;-43
2023/01/24 17:56:01;;;;;;;0.95;0.50;;;;;;;;;;4158111;28;20560;-44
2023/01/24 17:58:02;;;;;;;1.60;0.47;;;;;;;;;;4160039;28;20061;-42
2023/01/24 18:00:04;;;;;;;0.52;0.32;;;;;;;;;;4152377;28;20081;-45
2023/01/24 18:02:13;;;;;;;1.23;0.70;;;;;;;;;;4146845;28;20145;-42
2023/01/24 18:04:14;;;;;;;1.30;0.50;;;;;;;;;;4146984;28;20489;-43
2023/01/24 18:06:17;;;;;;;0.20;0.20;;;;;;;;;;4157523;28;20062;-43
2023/01/24 18:08:19;;;;;;;1.25;0.50;;;;;;;;;;4146161;28;20120;-43
2023/01/24 18:10:21;;;;;;;0.60;0.20;;;;;;;;;;4159880;28;20073;-44
2023/01/24 18:12:22;;;;;;;1.02;0.30;;;;;;;;;;4164344;28;20068;-43
2023/01/24 18:14:24;;;;;;;1.60;0.50;;;;;;;;;;4152816;28;20103;-43
2023/01/24 18:16:25;;;;;;;0.38;0.30;;;;;;;;;;4165019;28;20061;-43
2023/01/24 18:18:27;;;;;;;1.13;0.30;;;;;;;;;;4165397;28;20107;-48
2023/01/24 18:20:28;;;;;;;0.73;0.50;;;;;;;;;;4164894;28;20504;-43
2023/01/24 18:22:29;;;;;;;0.98;0.20;;;;;;;;;;4151552;28;20092;-43
2023/01/24 18:24:31;;;;;;;0.30;0.20;;;;;;;;;;4164698;28;20127;-43
2023/01/24 18:26:32;;;;;;;2.25;0.30;;;;;;;;;;4155997;28;20061;-43
2023/01/24 18:28:34;;;;;;;1.45;0.50;;;;;;;;;;4160944;28;20108;-44
2023/01/24 18:30:37;;;;;;;2.92;0.47;;;;;;;;;;4162312;28;20520;-42
2023/01/24 18:32:39;;;;;;;0.68;0.50;;;;;;;;;;4153996;28;20394;-43
2023/01/24 18:34:40;;;;;;;1.35;0.40;;;;;;;;;;4156240;28;20058;-43
2023/01/24 18:36:42;;;;;;;0.45;0.30;;;;;;;;;;4175407;28;20056;-44
2023/01/24 18:38:44;;;;;;;0.73;0.35;;;;;;;;;;4163028;28;20446;-43
2023/01/24 18:40:46;;;;;;;2.10;0.50;;;;;;;;;;4164376;28;20107;-43
2023/01/24 18:42:47;;;;;;;0.90;0.30;;;;;;;;;;4156833;28;20405;-43
2023/01/24 18:44:49;;;;;;;1.83;0.50;;;;;;;;;;4159112;28;20413;-44
2023/01/24 18:46:50;;;;;;;0.60;0.30;;;;;;;;;;4150990;28;20058;-48
2023/01/24 18:48:52;;;;;;;0.93;0.30;;;;;;;;;;4161995;28;20057;-43
2023/01/24 18:50:53;;;;;;;0.70;0.30;;;;;;;;;;4164492;28;20358;-43
2023/01/24 18:52:55;;;;;;;0.88;0.30;;;;;;;;;;4154274;28;20054;-43
2023/01/24 18:54:56;;;;;;;2.33;0.45;;;;;;;;;;4174913;28;20099;-43
2023/01/24 18:57:00;;;;;;;0.77;0.40;;;;;;;;;;4150817;28;20064;-43
2023/01/24 18:59:01;;;;;;;0.85;0.38;;;;;;;;;;4159254;28;20057;-44
2023/01/24 19:01:17;;;;;;;1.98;0.20;;;;;;;;;;4156762;28;20061;-43
2023/01/24 19:03:18;;;;;;;2.30;0.70;;;;;;;;;;4163941;28;20486;-44
2023/01/24 19:05:19;;;;;;;0.35;0.20;;;;;;;;;;4149712;28;20057;-43
2023/01/24 19:07:20;;;;;;;1.65;0.30;;;;;;;;;;4163269;28;20064;-44
2023/01/24 19:09:22;;;;;;;0.35;0.20;;;;;;;;;;4164024;28;20061;-43
2023/01/24 19:11:23;;;;;;;1.08;0.45;;;;;;;;;;4164293;28;20516;-44
2023/01/24 19:13:24;;;;;;;0.65;0.40;;;;;;;;;;4164093;28;20143;-44
2023/01/24 19:15:25;;;;;;;0.90;0.40;;;;;;;;;;4164333;28;20057;-43
2023/01/24 19:17:28;;;;;;;0.20;0.20;;;;;;;;;;4156308;28;20054;-43
2023/01/24 19:19:29;;;;;;;0.38;0.32;;;;;;;;;;4157909;28;20559;-42
2023/01/24 19:21:31;;;;;;;2.13;0.50;;;;;;;;;;4163704;28;20107;-42
2023/01/24 19:23:40;;;;;;;0.63;0.40;;;;;;;;;;4164056;28;20053;-43
2023/01/24 19:25:42;;;;;;;1.30;0.40;;;;;;;;;;4163504;28;20099;-43
2023/01/24 19:27:43;;;;;;;1.05;0.55;;;;;;;;;;4152694;28;20058;-42
2023/01/24 19:29:44;;;;;;;2.00;0.40;;;;;;;;;;4161985;28;20049;-44
2023/01/24 19:31:46;;;;;;;1.17;0.50;;;;;;;;;;4159428;28;20060;-42
2023/01/24 19:33:48;;;;;;;0.43;0.30;;;;;;;;;;4155273;28;20080;-43
2023/01/24 19:35:50;;;;;;;0.70;0.32;;;;;;;;;;4163766;28;20068;-44
2023/01/24 19:37:51;;;;;;;1.27;0.63;;;;;;;;;;4162287;28;20516;-44
2023/01/24 19:39:52;;;;;;;1.30;0.40;;;;;;;;;;4163375;28;20068;-43
2023/01/24 19:41:54;;;;;;;0.75;0.40;;;;;;;;;;4155813;28;20154;-43
2023/01/24 19:43:57;;;;;;;0.38;0.30;;;;;;;;;;4158675;28;20412;-43
2023/01/24 19:45:58;;;;;;;0.55;0.40;;;;;;;;;;4147702;28;20500;-44
2023/01/24 19:47:59;;;;;;;1.75;0.45;;;;;;;;;;4151395;28;20076;-44
2023/01/24 19:50:00;;;;;;;0.75;0.32;;;;;;;;;;4163818;28;20057;-43
2023/01/24 19:52:01;;;;;;;0.52;0.32;;;;;;;;;;4152359;28;20053;-43
2023/01/24 19:54:03;;;;;;;0.38;0.25;;;;;;;;;;4158953;28;20476;-45
2023/01/24 19:56:06;;;;;;;0.70;0.20;;;;;;;;;;4163578;28;20065;-44
2023/01/24 19:58:08;;;;;;;0.68;0.38;;;;;;;;;;4156933;28;20460;-43
2023/01/24 20:00:10;;;;;;;0.52;0.28;;;;;;;;;;4155496;28;20068;-45
2023/01/24 20:02:12;;;;;;;0.50;0.30;;;;;;;;;;4163728;28;20099;-43
2023/01/24 20:04:13;;;;;;;0.40;0.30;;;;;;;;;;4162936;28;20049;-43
2023/01/24 20:06:19;;;;;;;1.13;0.30;;;;;;;;;;4163316;28;20219;-43
2023/01/24 20:08:20;;;;;;;0.38;0.20;;;;;;;;;;4154216;28;20104;-44
2023/01/24 20:10:23;;;;;;;1.30;0.25;;;;;;;;;;4159085;28;20517;-43
2023/01/24 20:12:24;;;;;;;0.38;0.30;;;;;;;;;;4161718;28;20092;-44
2023/01/24 20:14:27;;;;;;;0.50;0.30;;;;;;;;;;4151386;28;20501;-45
2023/01/24 20:16:29;;;;;;;1.20;0.30;;;;;;;;;;4155691;28;20390;-43
2023/01/24 20:18:31;;;;;;;1.45;0.20;;;;;;;;;;4157676;28;20111;-43
2023/01/24 20:20:33;;;;;;;1.05;0.30;;;;;;;;;;4149533;28;20107;-43
2023/01/24 20:22:35;;;;;;;0.45;0.30;;;;;;;;;;4162981;28;20054;-42
2023/01/24 20:24:36;;;;;;;0.57;0.28;;;;;;;;;;4155951;28;20053;-44
2023/01/24 20:26:38;;;;;;;0.50;0.20;;;;;;;;;;4156948;28;20053;-43
2023/01/24 20:28:39;;;;;;;0.45;0.32;;;;;;;;;;4163376;28;20061;-43
2023/01/24 20:30:41;;;;;;;0.90;0.40;;;;;;;;;;4149429;28;20057;-47
2023/01/24 20:32:42;;;;;;;0.80;0.50;;;;;;;;;;4156847;28;20441;-43
2023/01/24 20:34:45;;;;;;;0.47;0.40;;;;;;;;;;4155873;28;20068;-42
2023/01/24 20:36:47;;;;;;;0.60;0.20;;;;;;;;;;4163038;28;20053;-43
2023/01/24 20:38:52;;;;;;;1.13;0.30;;;;;;;;;;4162822;28;20057;-43
2023/01/24 20:41:02;;;;;;;0.80;0.20;;;;;;;;;;4162671;28;20053;-43
2023/01/24 20:43:03;;;;;;;1.38;0.30;;;;;;;;;;4152995;28;20097;-42
2023/01/24 20:45:05;;;;;;;0.98;0.20;;;;;;;;;;4159728;28;20053;-43
2023/01/24 20:47:08;;;;;;;0.43;0.20;;;;;;;;;;4160171;28;20053;-43
2023/01/24 20:49:10;;;;;;;0.50;0.20;;;;;;;;;;4152451;28;20103;-43
2023/01/24 20:51:11;;;;;;;0.45;0.30;;;;;;;;;;4154553;28;20054;-43
2023/01/24 20:53:12;;;;;;;0.75;0.30;;;;;;;;;;4157956;28;20056;-43
2023/01/24 20:55:14;;;;;;;3.05;0.40;;;;;;;;;;4154032;28;20519;-43
2023/01/24 20:57:15;;;;;;;0.77;0.40;;;;;;;;;;4162786;28;20386;-43
2023/01/24 20:59:17;;;;;;;0.57;0.20;;;;;;;;;;4162700;28;20049;-46
2023/01/24 21:01:20;;;;;;;0.20;0.20;;;;;;;;;;4162765;28;20508;-42
2023/01/24 21:03:25;;;;;;;0.28;0.20;;;;;;;;;;4162095;28;20586;-43
2023/01/24 21:05:30;;;;;;;1.73;0.35;;;;;;;;;;4159820;28;20049;-43
2023/01/24 21:07:31;;;;;;;0.20;0.20;;;;;;;;;;4153108;28;20058;-43
2023/01/24 21:09:33;;;;;;;0.43;0.30;;;;;;;;;;4154476;28;20156;-43
2023/01/24 21:11:34;;;;;;;0.32;0.30;;;;;;;;;;4158922;28;20528;-42
2023/01/24 21:13:36;;;;;;;0.28;0.25;;;;;;;;;;4156974;28;20053;-43
2023/01/24 21:15:37;;;;;;;0.50;0.22;;;;;;;;;;4150882;28;20057;-44
2023/01/24 21:17:38;;;;;;;0.77;0.38;;;;;;;;;;4158863;28;20504;-45
2023/01/24 21:19:42;;;;;;;0.43;0.20;;;;;;;;;;4160373;28;20103;-44
2023/01/24 21:21:44;;;;;;;1.27;0.50;;;;;;;;;;4155781;28;20065;-44
2023/01/24 21:23:45;;;;;;;0.43;0.38;;;;;;;;;;4152300;28;20088;-43
2023/01/24 21:25:47;;;;;;;0.68;0.30;;;;;;;;;;4162200;28;20053;-42
2023/01/24 21:27:50;;;;;;;0.45;0.30;;;;;;;;;;4161164;28;20064;-42
2023/01/24 21:29:51;;;;;;;0.75;0.35;;;;;;;;;;4159894;28;20053;-43
2023/01/24 21:31:52;;;;;;;1.00;0.40;;;;;;;;;;4150460;28;20073;-43
2023/01/24 21:33:55;;;;;;;1.90;0.38;;;;;;;;;;4162357;28;20452;-43
2023/01/24 21:36:01;;;;;;;0.45;0.20;;;;;;;;;;4149411;28;20544;-43
2023/01/24 21:38:03;;;;;;;0.40;0.22;;;;;;;;;;4149534;28;20412;-43
2023/01/24 21:40:05;;;;;;;0.40;0.30;;;;;;;;;;4161710;28;20056;-43
2023/01/24 21:42:06;;;;;;;0.35;0.30;;;;;;;;;;4162311;28;20069;-42
2023/01/24 21:44:08;;;;;;;0.20;0.20;;;;;;;;;;4163793;28;20501;-43
2023/01/24 21:46:10;;;;;;;0.88;0.30;;;;;;;;;;4152109;28;20100;-43
2023/01/24 21:48:11;;;;;;;0.55;0.40;;;;;;;;;;4158690;28;20438;-44
2023/01/24 21:50:13;;;;;;;0.20;0.20;;;;;;;;;;4158035;28;20053;-43
2023/01/24 21:52:15;;;;;;;0.40;0.20;;;;;;;;;;4153300;28;20046;-43
2023/01/24 21:54:17;;;;;;;0.20;0.20;;;;;;;;;;4179157;28;20154;-43
2023/01/24 21:58:38;;;;;;;;;;;;;;;;;;4166267;28;20061;-43
2023/01/24 22:00:40;;;;;;;0.47;0.30;;;;;;;;;;4164992;28;19921;-42
2023/01/24 22:02:41;;;;;;;0.10;0.10;;;;;;;;;;4161722;28;20057;-43
2023/01/24 22:04:43;;;;;;;0.20;0.20;;;;;;;;;;4155502;28;20064;-43
2023/01/24 22:06:44;;;;;;;0.32;0.20;;;;;;;;;;4165441;28;20446;-44
2023/01/24 22:08:45;;;;;;;0.73;0.40;;;;;;;;;;4165543;28;20189;-44
2023/01/24 22:10:47;;;;;;;0.63;0.30;;;;;;;;;;4150658;28;20478;-44
2023/01/24 22:12:48;;;;;;;0.50;0.30;;;;;;;;;;4160923;28;20100;-43
2023/01/24 22:14:49;;;;;;;0.65;0.30;;;;;;;;;;4156151;28;20061;-43
2023/01/24 22:16:53;;;;;;;0.30;0.30;;;;;;;;;;4164981;28;20131;-43
2023/01/24 22:18:55;;;;;;;0.82;0.40;;;;;;;;;;4164807;28;20139;-43
2023/01/24 22:20:56;;;;;;;0.45;0.20;;;;;;;;;;4161201;28;20065;-43
2023/01/24 22:23:12;;;;;;;0.32;0.30;;;;;;;;;;4163654;28;20119;-43
2023/01/24 22:25:40;;;;;;;0.47;0.28;;;;;;;;;;4163287;28;20060;-42
2023/01/24 22:27:42;;;;;;;0.30;0.20;;;;;;;;;;4163738;28;20053;-44
2023/01/24 22:29:45;;;;;;;0.47;0.20;;;;;;;;;;4165026;28;20057;-43
2023/01/24 22:31:47;;;;;;;0.20;0.20;;;;;;;;;;4164960;28;20061;-44
2023/01/24 22:33:48;;;;;;;0.65;0.40;;;;;;;;;;4163318;28;20053;-43
2023/01/24 22:35:52;;;;;;;0.20;0.20;;;;;;;;;;4153086;28;20057;-44
2023/01/24 22:37:55;;;;;;;0.35;0.28;;;;;;;;;;4155649;28;20053;-45
2023/01/24 22:39:57;;;;;;;0.47;0.20;;;;;;;;;;4159349;28;20054;-45
2023/01/24 22:41:58;;;;;;;0.20;0.20;;;;;;;;;;4164264;28;20398;-43
2023/01/24 22:43:59;;;;;;;0.40;0.30;;;;;;;;;;4160939;28;20108;-43
2023/01/24 22:46:00;;;;;;;0.65;0.20;;;;;;;;;;4155559;28;20127;-44
2023/01/24 22:48:10;;;;;;;0.50;0.28;;;;;;;;;;4153052;28;20057;-43
2023/01/24 22:50:11;;;;;;;0.45;0.30;;;;;;;;;;4160817;28;20409;-43
2023/01/24 22:52:13;;;;;;;0.32;0.28;;;;;;;;;;4151832;28;20115;-43
2023/01/24 22:54:14;;;;;;;0.32;0.20;;;;;;;;;;4157056;28;20104;-43
2023/01/24 22:56:16;;;;;;;0.30;0.20;;;;;;;;;;4163438;28;20365;-44
2023/01/24 22:58:17;;;;;;;0.60;0.40;;;;;;;;;;4152183;28;20057;-43
2023/01/24 23:00:19;;;;;;;0.20;0.20;;;;;;;;;;4163562;28;20531;-43
2023/01/24 23:02:20;;;;;;;0.50;0.38;;;;;;;;;;4164464;28;20053;-44
2023/01/24 23:04:22;;;;;;;0.52;0.28;;;;;;;;;;4163259;28;20639;-43
2023/01/24 23:06:23;;;;;;;0.15;0.15;;;;;;;;;;4164623;28;20167;-43
2023/01/24 23:08:24;;;;;;;0.50;0.22;;;;;;;;;;4164507;28;20056;-43
2023/01/24 23:10:25;;;;;;;0.38;0.30;;;;;;;;;;4162702;28;20107;-43
2023/01/24 23:17:11;;;;;;;0.63;0.20;;;;;;;;;;4153489;28;19955;-47
2023/01/24 23:21:42;;;;;;;0.25;0.22;;;;;;;;;;4163637;28;20796;-46
2023/01/24 23:23:43;;;;;;;0.20;0.20;;;;;;;;;;4164218;28;20129;-43
2023/01/24 23:25:44;;;;;;;0.45;0.22;;;;;;;;;;4154734;28;20053;-43
2023/01/24 23:27:46;;;;;;;0.65;0.10;;;;;;;;;;4159754;28;20064;-42
2023/01/24 23:29:47;;;;;;;0.50;0.40;;;;;;;;;;4163652;28;20111;-44
2023/01/24 23:31:52;;;;;;;0.60;0.30;;;;;;;;;;4159346;28;20112;-43
2023/01/24 23:33:55;;;;;;;0.68;0.20;;;;;;;;;;4157451;28;20092;-43
2023/01/24 23:35:57;;;;;;;0.30;0.30;;;;;;;;;;4162654;28;20099;-43
2023/01/24 23:37:58;;;;;;;0.80;0.30;;;;;;;;;;4150181;28;20468;-43
2023/01/24 23:39:59;;;;;;;0.20;0.20;;;;;;;;;;4157837;28;20081;-44
2023/01/24 23:42:01;;;;;;;0.50;0.20;;;;;;;;;;4156953;28;20064;-43
2023/01/24 23:44:02;;;;;;;0.65;0.30;;;;;;;;;;4150307;28;20104;-43
2023/01/24 23:46:08;;;;;;;0.30;0.25;;;;;;;;;;4160630;28;20100;-43
2023/01/24 23:48:10;;;;;;;1.67;0.30;;;;;;;;;;4152994;28;20057;-45
2023/01/24 23:50:12;;;;;;;0.20;0.20;;;;;;;;;;4163452;28;20057;-43
2023/01/24 23:52:14;;;;;;;0.40;0.20;;;;;;;;;;4163969;28;20127;-42
2023/01/24 23:54:15;;;;;;;0.20;0.20;;;;;;;;;;4149501;28;20060;-43
2023/01/24 23:56:17;;;;;;;0.60;0.30;;;;;;;;;;4162196;28;20080;-44
2023/01/24 23:58:18;;;;;;;0.43;0.40;;;;;;;;;;4163654;28;20065;-42
